Airfield :
LOGIN :

Register | Disclaimer

   EN    FR    IT 

 










Legend :    VFR   Marginal VFR   IFR   Intensive IFR   Very Intensive IFR
Visi :
Ceiling :
>= 8 km
>= 3000ft
5 to 8 km
1000 to 3000 ft
1500m to 5 km
500 to 1000 ft
800 to 1500m
200 to 500 ft
< 800m
< 200 ft
Symbols :   Thunderstorms  Fog  Heavy snow  Heavy precipitations  Wind > 20 kt
SIGMETs :     Misc.  Thunderstorms  Icing  Turbulence  Mountain Waves  Volcanic Ashes






- Airport Elevation : 598 ft
- IATA code : BQH


EGKB - Biggin Hill

CURRENT METAR :
  • 121320Z 18020KT 3000 RADZ BR BKN005 07/07 Q0985

EXPIRED METARs :
  • 121250Z 18022KT 2000 RADZ BR BKN005 07/07 Q0986
  • 121220Z 17023G34KT 3000 RADZ BR BKN005 07/07 Q0987
  • 121150Z 17021KT 6000 -RADZ BKN005 07/06 Q0988
  • 121120Z 16020KT 3500 -RADZ BKN006 06/06 Q0989
  • 121050Z 17019KT 4500 -RADZ BKN005 06/06 Q0990

TAF TAF EGKB
Valid from the 12 at 12:00 until the 12 at 21:00 UTC


121058Z 1212/1221 16014KT 9999 BKN020
TEMPO 1212/1218 8000 RA BKN009
PROB40
TEMPO 1212/1217 15018G28KT 4000 RADZ BKN004
BECMG 1216/1218 23008KT
PROB30
TEMPO 1218/1220 7000 RA BKN009



MET'MAP, your aeronautical weather chart ! - Copyright ORBIFLY December 2007 - Disclaimer

ORBIFLY MET'MAP TEAM :

Programming & Development : Alexandra Zaïnal
Concept & original design : Baudouin d'Aumeries
Assistance for programming : Marc-Olivier Méhu
Technical & hardware support : Manuel Goepfert

Contact : metmap@orbifly.com




SOURCES & CREDITS :

   NOAA